Time;durP1;ratioP1;P1;durP2;ratioP2;P2;SDS_P1;SDS_P2;PMS_P1;PMS_P2;Temp;Humidity;BMP_temperature;BMP_pressure;BME280_temperature;BME280_humidity;BME280_pressure;Samples;Min_cycle;Max_cycle;Signal;HPM_P1;HPM_P2
2021/10/09 00:01:42;;;;;;;17.82;8.73;;;;;;;2.55;67.38;98825.65;1644145;87;21107;-74
2021/10/09 00:04:09;;;;;;;18.75;7.85;;;;;;;2.58;67.77;98823.09;1676849;85;21008;-74
2021/10/09 00:06:36;;;;;;;14.65;7.58;;;;;;;2.54;67.54;98823.89;1686927;85;21071;-75
2021/10/09 00:09:04;;;;;;;17.90;8.08;;;;;;;2.50;67.51;98822.52;1687536;84;20980;-74
2021/10/09 00:11:36;;;;;;;18.20;8.20;;;;;;;2.47;67.41;98830.75;1687014;85;21056;-74
2021/10/09 00:14:10;;;;;;;16.20;8.20;;;;;;;2.43;67.08;98821.98;1685146;85;21016;-74
2021/10/09 00:16:36;;;;;;;;;;;;;;;2.35;66.82;98819.66;1688987;85;21420;-74
2021/10/09 00:19:04;;;;;;;19.75;8.20;;;;;;;2.27;67.21;98816.91;1686964;85;20178;-74
2021/10/09 00:24:17;;;;;;;25.68;8.68;;;;;;;2.23;66.91;98808.55;1889147;76;22139;-72
2021/10/09 00:26:46;;;;;;;16.87;8.85;;;;;;;2.16;66.54;98813.24;1865855;77;21413;-73
2021/10/09 00:29:13;;;;;;;20.65;8.90;;;;;;;2.08;66.45;98800.89;1867607;77;21015;-73
2021/10/09 00:31:40;;;;;;;20.15;8.53;;;;;;;2.01;66.63;98793.81;1826032;78;20949;-72
2021/10/09 00:34:06;;;;;;;17.05;8.90;;;;;;;1.94;67.59;98800.66;1796117;79;20988;-72
2021/10/09 00:36:33;;;;;;;19.57;8.83;;;;;;;1.95;67.33;98804.17;1815145;79;21091;-72
2021/10/09 00:39:00;;;;;;;15.70;8.15;;;;;;;1.95;67.33;98800.24;1824949;79;21661;-72
2021/10/09 00:41:26;;;;;;;20.27;8.50;;;;;;;1.94;67.92;98798.45;1809698;79;21390;-72
2021/10/09 00:43:53;;;;;;;19.00;8.30;;;;;;;1.93;67.39;98798.02;1800909;79;20923;-73
2021/10/09 00:46:19;;;;;;;17.73;8.35;;;;;;;1.94;67.51;98795.43;1805278;79;20971;-72
2021/10/09 00:48:46;;;;;;;15.75;8.50;;;;;;;1.89;67.56;98790.55;1805332;79;20988;-73
2021/10/09 00:51:13;;;;;;;17.35;8.68;;;;;;;1.88;67.40;98788.79;1776217;78;21003;-72
2021/10/09 00:53:40;;;;;;;17.40;8.60;;;;;;;1.87;67.50;98787.45;1819887;78;20995;-73
2021/10/09 00:56:09;;;;;;;16.30;7.78;;;;;;;1.82;68.19;98783.02;1805297;79;21026;-73
2021/10/09 00:58:38;;;;;;;16.20;7.95;;;;;;;1.80;67.53;98785.14;1805285;79;20952;-73
2021/10/09 01:01:05;;;;;;;14.95;7.33;;;;;;;1.79;67.68;98785.55;1806246;78;20979;-72
2021/10/09 01:03:32;;;;;;;14.35;6.72;;;;;;;1.77;67.57;98784.66;1803910;79;21455;-73
2021/10/09 01:05:58;;;;;;;12.75;6.50;;;;;;;1.74;68.73;98782.42;1805081;79;20975;-72
2021/10/09 01:08:25;;;;;;;10.28;5.85;;;;;;;1.68;68.22;98805.39;1770809;79;20964;-72
2021/10/09 01:10:51;;;;;;;11.85;5.83;;;;;;;1.68;69.09;98808.00;1786304;79;21112;-72
2021/10/09 01:13:18;;;;;;;16.85;6.55;;;;;;;1.66;68.82;98801.88;1772294;81;20947;-72
2021/10/09 01:15:45;;;;;;;15.25;6.85;;;;;;;1.64;68.41;98794.01;1771959;81;21370;-72
2021/10/09 01:18:17;;;;;;;13.18;6.10;;;;;;;1.61;68.39;98797.86;1772302;81;20991;-73
2021/10/09 01:20:55;;;;;;;14.58;6.50;;;;;;;1.60;68.52;98789.56;1773278;81;21083;-73
2021/10/09 01:23:26;;;;;;;16.60;6.17;;;;;;;1.55;70.02;98793.41;1770460;79;22156;-73
2021/10/09 01:25:54;;;;;;;13.72;6.37;;;;;;;1.47;69.11;98791.06;1779131;80;21414;-72
2021/10/09 01:28:21;;;;;;;14.23;6.17;;;;;;;1.42;69.17;98784.42;1787163;79;21011;-72
2021/10/09 01:30:48;;;;;;;11.60;6.17;;;;;;;1.40;69.00;98779.61;1785324;80;20988;-76
2021/10/09 01:33:15;;;;;;;12.40;6.10;;;;;;;1.40;69.28;98780.91;1785245;80;20967;-72
2021/10/09 01:35:52;;;;;;;16.12;6.70;;;;;;;1.40;68.94;98781.33;1784587;80;20972;-73
2021/10/09 01:38:27;;;;;;;16.27;7.15;;;;;;;1.39;68.98;98773.04;1784794;80;21015;-72
2021/10/09 01:40:57;;;;;;;12.53;7.00;;;;;;;1.37;69.26;98778.67;1784961;80;21027;-72
2021/10/09 01:43:25;;;;;;;12.28;6.83;;;;;;;1.34;69.05;98774.27;1767458;80;21009;-72
2021/10/09 01:45:53;;;;;;;18.55;7.53;;;;;;;1.28;69.39;98773.70;1748920;80;21054;-72
2021/10/09 01:48:34;;;;;;;16.42;7.28;;;;;;;1.23;69.33;98774.04;1784552;80;20933;-72
2021/10/09 01:51:04;;;;;;;15.88;7.28;;;;;;;1.17;69.71;98774.78;1783055;79;21008;-72
2021/10/09 01:53:36;;;;;;;15.98;6.80;;;;;;;1.15;69.71;98776.91;1782984;80;21011;-73
2021/10/09 01:56:09;;;;;;;16.80;8.43;;;;;;;1.13;70.06;98776.01;1783771;80;21023;-72
2021/10/09 01:58:37;;;;;;;19.45;9.28;;;;;;;1.14;70.46;98772.13;1760630;80;20951;-72
2021/10/09 02:01:05;;;;;;;20.90;8.43;;;;;;;1.11;72.01;98775.08;1784610;79;20949;-72
2021/10/09 02:03:32;;;;;;;21.75;8.75;;;;;;;1.08;70.40;98769.81;1784693;80;21100;-72
2021/10/09 02:05:58;;;;;;;17.60;8.93;;;;;;;1.08;70.37;98773.28;1784664;80;21406;-72
2021/10/09 02:08:25;;;;;;;19.67;8.93;;;;;;;1.08;70.43;98768.50;1759790;80;20957;-72
2021/10/09 02:13:34;;;;;;;20.15;9.58;;;;;;;1.04;71.16;98772.79;1784751;80;21042;-72
2021/10/09 02:15:58;;;;;;;20.17;9.20;;;;;;;1.04;71.33;98770.17;1765522;80;20970;-72
2021/10/09 02:26:29;;;;;;;;;;;;;;;0.88;71.46;98775.04;1767082;81;20975;-74
2021/10/09 02:28:56;;;;;;;15.53;7.90;;;;;;;0.91;71.84;98775.12;1792914;79;20130;-73
2021/10/09 02:31:23;;;;;;;22.85;8.68;;;;;;;0.90;72.14;98772.05;1792051;80;20933;-73
2021/10/09 02:33:50;;;;;;;21.40;9.95;;;;;;;0.85;71.40;98772.38;1783037;80;21011;-74
2021/10/09 02:36:17;;;;;;;18.32;10.45;;;;;;;0.86;71.92;98773.24;1824112;79;21031;-74
2021/10/09 02:38:45;;;;;;;27.52;10.43;;;;;;;0.83;72.06;98767.98;1824361;79;20929;-73
2021/10/09 02:41:14;;;;;;;20.75;10.30;;;;;;;0.79;73.74;98775.72;1791935;79;21436;-74
2021/10/09 02:43:41;;;;;;;24.98;11.97;;;;;;;0.81;72.26;98774.87;1791931;80;21508;-73
2021/10/09 02:46:07;;;;;;;23.87;10.15;;;;;;;0.78;72.28;98770.05;1783872;80;20948;-73
2021/10/09 02:48:37;;;;;;;23.98;11.10;;;;;;;0.77;72.90;98774.83;1771223;81;21535;-73
2021/10/09 02:51:04;;;;;;;20.80;10.13;;;;;;;0.78;72.30;98777.88;1771479;81;21000;-74
2021/10/09 02:53:31;;;;;;;22.42;10.75;;;;;;;0.77;72.45;98776.54;1797927;79;21362;-73
2021/10/09 02:55:58;;;;;;;23.30;11.25;;;;;;;0.76;74.77;98780.89;1824161;78;21032;-74
2021/10/09 02:58:26;;;;;;;26.73;11.45;;;;;;;0.71;74.41;98775.97;1796084;78;21003;-74
2021/10/09 03:00:52;;;;;;;19.70;10.55;;;;;;;0.66;75.15;98773.67;1786486;79;20968;-73
2021/10/09 03:03:20;;;;;;;21.15;10.15;;;;;;;0.64;73.95;98774.08;1790212;80;20949;-74
2021/10/09 03:05:46;;;;;;;19.80;10.60;;;;;;;0.65;73.93;98777.14;1783267;80;21039;-73
2021/10/09 03:08:14;;;;;;;21.65;10.03;;;;;;;0.67;73.94;98767.64;1773165;81;20988;-73
2021/10/09 03:10:41;;;;;;;23.80;10.65;;;;;;;0.68;73.89;98773.31;1786771;79;20969;-74
2021/10/09 03:13:07;;;;;;;18.48;9.90;;;;;;;0.67;73.99;98772.86;1791890;80;21369;-74
2021/10/09 03:15:35;;;;;;;25.68;10.72;;;;;;;0.71;74.24;98775.10;1764144;81;20984;-72
2021/10/09 03:18:02;;;;;;;20.40;10.58;;;;;;;0.68;74.42;98780.23;1784925;80;20995;-71
2021/10/09 03:20:29;;;;;;;26.07;11.18;;;;;;;0.68;74.92;98782.44;1784925;79;20940;-72
2021/10/09 03:22:56;;;;;;;22.32;9.88;;;;;;;0.72;75.07;98778.16;1759217;80;21126;-72
2021/10/09 03:25:26;;;;;;;19.48;10.32;;;;;;;0.60;75.81;98784.88;1750638;81;20990;-72
2021/10/09 03:27:52;;;;;;;21.33;10.20;;;;;;;0.57;74.22;98779.98;1754442;82;21018;-72
2021/10/09 03:30:21;;;;;;;24.27;10.60;;;;;;;0.56;74.36;98773.02;1735476;82;20960;-72
2021/10/09 03:32:47;;;;;;;23.90;10.65;;;;;;;0.51;74.26;98779.44;1750114;80;21003;-72
2021/10/09 03:35:14;;;;;;;22.25;11.38;;;;;;;0.44;74.59;98770.99;1741478;82;20984;-72
2021/10/09 03:37:42;;;;;;;19.17;9.45;;;;;;;0.37;73.66;98769.55;1760131;81;21055;-73
2021/10/09 03:40:14;;;;;;;23.32;10.90;;;;;;;0.32;74.25;98772.47;1759953;81;21393;-72
2021/10/09 03:52:47;;;;;;;23.87;10.55;;;;;;;0.18;74.48;98786.89;1741297;82;21058;-72
2021/10/09 03:55:17;;;;;;;24.00;9.78;;;;;;;0.12;74.42;98782.39;1739531;82;20937;-72
2021/10/09 03:57:46;;;;;;;22.93;9.40;;;;;;;0.10;75.78;98783.69;1771687;81;21057;-72
2021/10/09 04:00:17;;;;;;;22.58;10.23;;;;;;;0.04;74.95;98790.02;1772469;81;20961;-72
2021/10/09 04:02:47;;;;;;;21.62;10.65;;;;;;;0.05;74.76;98786.60;1772816;81;21049;-72
2021/10/09 04:05:14;;;;;;;18.87;9.65;;;;;;;0.08;75.25;98784.49;1772544;81;21025;-72
2021/10/09 04:07:41;;;;;;;25.45;10.95;;;;;;;0.04;74.34;98787.86;1768493;81;21028;-71
2021/10/09 04:10:10;;;;;;;21.45;10.25;;;;;;;0.06;74.31;98774.44;1712702;84;21474;-72
2021/10/09 04:12:37;;;;;;;23.83;9.60;;;;;;;0.07;75.12;98784.01;1712733;84;21522;-72
2021/10/09 04:15:07;;;;;;;24.82;10.98;;;;;;;0.06;74.45;98783.14;1723043;81;21351;-72
2021/10/09 04:17:34;;;;;;;22.65;10.13;;;;;;;0.04;74.30;98785.25;1752983;81;20988;-72
2021/10/09 04:20:01;;;;;;;19.90;9.05;;;;;;;0.03;74.22;98785.66;1700839;83;20992;-72
2021/10/09 04:22:28;;;;;;;19.40;8.88;;;;;;;0.05;74.96;98787.02;1742272;82;21512;-72
2021/10/09 04:24:54;;;;;;;20.12;9.13;;;;;;;0.05;75.11;98795.72;1738226;80;21008;-72
2021/10/09 04:27:21;;;;;;;24.95;10.30;;;;;;;0.03;74.87;98788.27;1790283;79;20976;-72
2021/10/09 04:29:47;;;;;;;25.17;10.35;;;;;;;0.03;76.17;98792.62;1804318;79;20968;-74
2021/10/09 04:32:14;;;;;;;31.75;10.55;;;;;;;0.06;74.68;98790.07;1801759;79;21425;-74
2021/10/09 04:34:41;;;;;;;21.00;9.78;;;;;;;0.02;74.56;98795.63;1772667;81;21128;-74
2021/10/09 04:37:08;;;;;;;28.55;10.85;;;;;;;0.00;74.61;98794.72;1772849;81;21021;-74
2021/10/09 04:39:34;;;;;;;23.77;10.10;;;;;;;0.03;74.42;98796.53;1773170;79;20955;-74
2021/10/09 04:42:02;;;;;;;20.43;9.98;;;;;;;0.03;74.74;98793.48;1771910;80;20994;-74
2021/10/09 04:44:30;;;;;;;24.00;9.83;;;;;;;0.05;74.37;98798.73;1771125;81;21034;-74
2021/10/09 04:46:56;;;;;;;18.50;9.90;;;;;;;0.02;74.63;98794.33;1770820;81;21415;-74
2021/10/09 04:49:24;;;;;;;25.72;9.75;;;;;;;0.01;74.52;98804.30;1770792;81;20979;-74
2021/10/09 04:51:51;;;;;;;27.58;10.03;;;;;;;-0.01;75.08;98804.25;1792982;79;21018;-73
2021/10/09 04:54:19;;;;;;;17.87;10.05;;;;;;;0.00;74.47;98801.23;1804215;79;20995;-74
2021/10/09 04:56:46;;;;;;;18.73;9.53;;;;;;;-0.01;74.77;98804.66;1804411;79;20995;-74
2021/10/09 04:59:13;;;;;;;20.70;9.63;;;;;;;0.03;74.93;98808.26;1775576;79;20939;-74
2021/10/09 05:01:40;;;;;;;17.77;9.80;;;;;;;0.06;74.58;98809.21;1742448;81;21447;-74
2021/10/09 05:04:06;;;;;;;20.40;9.20;;;;;;;0.04;75.42;98808.27;1796329;79;21034;-74
2021/10/09 05:06:33;;;;;;;20.68;9.55;;;;;;;0.06;74.93;98806.60;1772173;80;20963;-74
2021/10/09 05:09:00;;;;;;;20.12;8.80;;;;;;;0.12;75.23;98812.37;1771373;81;20960;-74
2021/10/09 05:11:27;;;;;;;13.25;6.97;;;;;;;0.18;75.05;98808.64;1772930;79;20975;-74
2021/10/09 05:13:53;;;;;;;16.97;7.90;;;;;;;0.24;76.13;98809.20;1773204;81;20995;-74
2021/10/09 05:16:20;;;;;;;17.98;8.10;;;;;;;0.33;74.86;98812.48;1773012;81;21060;-74
2021/10/09 05:18:48;;;;;;;15.60;7.87;;;;;;;0.39;75.00;98808.30;1774854;79;20994;-74
2021/10/09 05:21:14;;;;;;;19.52;7.70;;;;;;;0.44;75.64;98801.88;1804213;79;20979;-73
2021/10/09 05:23:41;;;;;;;18.20;7.83;;;;;;;0.50;74.97;98809.84;1780490;79;21007;-74
2021/10/09 05:26:08;;;;;;;16.90;8.28;;;;;;;0.50;75.07;98808.54;1766287;81;20943;-74
2021/10/09 05:28:47;;;;;;;18.42;8.23;;;;;;;0.54;74.59;98812.09;1766215;81;21431;-73
2021/10/09 05:31:20;;;;;;;17.65;9.03;;;;;;;0.62;74.44;98808.39;1764407;81;20967;-74
2021/10/09 05:33:43;;;;;;;22.60;8.03;;;;;;;0.68;74.68;98810.24;1763883;81;21357;-74
2021/10/09 05:36:09;;;;;;;12.55;7.22;;;;;;;0.72;74.03;98817.30;1765545;81;21038;-74
2021/10/09 05:38:37;;;;;;;19.90;7.95;;;;;;;0.74;73.86;98811.27;1765999;81;21038;-74
2021/10/09 05:41:04;;;;;;;14.80;7.33;;;;;;;0.77;74.07;98811.77;1766418;81;20955;-73
2021/10/09 05:43:32;;;;;;;19.98;8.10;;;;;;;0.83;73.84;98814.95;1766320;81;21467;-74
2021/10/09 05:46:00;;;;;;;17.10;8.90;;;;;;;0.90;73.77;98822.05;1765924;81;21091;-74
2021/10/09 05:48:27;;;;;;;20.72;9.20;;;;;;;0.94;73.98;98821.70;1744499;81;21023;-73
2021/10/09 06:45:08;;;;;;;20.30;10.23;;;;;;;1.85;73.33;98839.69;1709862;80;21082;-73
2021/10/09 07:00:47;;;;;;;22.87;10.93;;;;;;;2.83;72.00;98844.41;1797778;79;21095;-73
2021/10/09 07:03:20;;;;;;;17.25;9.55;;;;;;;2.93;72.10;98843.69;1764034;81;20996;-73
2021/10/09 07:05:47;;;;;;;24.07;9.50;;;;;;;3.06;71.64;98842.58;1764667;81;21488;-72
2021/10/09 07:08:25;;;;;;;19.40;10.05;;;;;;;3.19;71.72;98839.70;1775301;81;20951;-72
2021/10/09 07:11:07;;;;;;;19.48;10.35;;;;;;;3.33;71.37;98843.80;1782227;79;21405;-73
2021/10/09 07:13:33;;;;;;;15.25;10.20;;;;;;;3.43;71.19;98840.03;1792458;80;21061;-74
2021/10/09 07:16:00;;;;;;;18.10;9.53;;;;;;;3.56;70.96;98837.13;1778481;80;21373;-73
2021/10/09 07:18:28;;;;;;;19.12;9.03;;;;;;;3.68;70.77;98840.33;1793723;80;20950;-74
2021/10/09 07:20:55;;;;;;;18.42;9.05;;;;;;;3.81;70.34;98838.73;1794180;80;21048;-73
2021/10/09 07:23:22;;;;;;;18.40;8.65;;;;;;;3.91;69.93;98830.52;1808185;79;21052;-73
2021/10/09 07:25:49;;;;;;;23.00;9.38;;;;;;;4.02;69.65;98831.95;1806258;79;20984;-73
2021/10/09 07:28:16;;;;;;;16.50;8.53;;;;;;;4.14;69.32;98834.23;1802583;79;20963;-73
2021/10/09 07:30:42;;;;;;;19.32;7.83;;;;;;;4.24;69.15;98825.62;1795499;79;21475;-73
2021/10/09 07:33:11;;;;;;;15.90;7.67;;;;;;;4.36;68.64;98841.88;1805758;79;21008;-73
2021/10/09 07:35:38;;;;;;;14.28;7.30;;;;;;;4.49;68.17;98838.97;1789886;79;20977;-71
2021/10/09 07:38:05;;;;;;;17.17;7.50;;;;;;;4.62;67.90;98845.19;1784264;79;21061;-71
2021/10/09 07:40:32;;;;;;;14.30;7.47;;;;;;;4.73;67.48;98838.27;1791945;79;21044;-71
2021/10/09 07:42:59;;;;;;;15.00;6.50;;;;;;;4.86;67.46;98841.00;1803819;79;20975;-71
2021/10/09 07:45:25;;;;;;;12.25;6.58;;;;;;;4.99;67.15;98848.53;1786410;79;21003;-71
2021/10/09 07:47:51;;;;;;;14.93;6.03;;;;;;;5.08;66.52;98845.97;1792914;79;21030;-72
2021/10/09 07:50:18;;;;;;;11.45;5.92;;;;;;;5.18;65.38;98845.57;1792730;80;20987;-71
2021/10/09 07:52:44;;;;;;;11.30;6.28;;;;;;;5.26;65.63;98846.92;1792710;80;20952;-72
2021/10/09 07:55:11;;;;;;;9.38;5.62;;;;;;;5.35;63.96;98845.67;1781845;79;21003;-72
2021/10/09 07:57:38;;;;;;;12.00;5.30;;;;;;;5.48;64.49;98836.09;1774291;81;21555;-71
2021/10/09 08:00:07;;;;;;;13.75;5.83;;;;;;;5.59;64.79;98840.09;1790155;80;20986;-71
2021/10/09 08:02:36;;;;;;;17.90;6.37;;;;;;;5.70;64.15;98838.83;1780787;80;21027;-70
2021/10/09 08:05:05;;;;;;;14.35;6.95;;;;;;;5.79;63.50;98832.28;1775215;80;20979;-73
2021/10/09 08:07:33;;;;;;;13.60;5.70;;;;;;;5.89;63.02;98829.23;1790938;79;20974;-72
2021/10/09 08:09:59;;;;;;;17.10;7.50;;;;;;;6.02;63.22;98832.77;1769966;81;21459;-74
2021/10/09 08:12:26;;;;;;;15.72;6.58;;;;;;;6.12;62.85;98828.88;1770828;81;20960;-72
2021/10/09 08:14:52;;;;;;;16.75;6.97;;;;;;;6.24;62.96;98829.34;1770858;81;21054;-77
2021/10/09 08:17:19;;;;;;;19.95;6.33;;;;;;;6.34;60.18;98832.42;1773103;81;20964;-73
2021/10/09 08:19:45;;;;;;;14.40;7.62;;;;;;;6.47;61.11;98826.30;1780001;79;21055;-72
2021/10/09 08:22:12;;;;;;;11.68;6.33;;;;;;;6.60;58.22;98828.48;1795183;80;21073;-72
2021/10/09 08:24:46;;;;;;;17.45;6.85;;;;;;;6.74;60.44;98821.89;1746237;81;21038;-73
2021/10/09 08:35:37;;;;;;;13.55;6.03;;;;;;;7.39;59.18;98818.68;1740812;82;21039;-73
2021/10/09 08:40:46;;;;;;;19.07;8.10;;;;;;;7.74;57.87;98823.39;1737234;82;21099;-73
2021/10/09 08:43:13;;;;;;;15.60;6.67;;;;;;;7.89;58.59;98820.67;1724792;82;20977;-72
2021/10/09 08:45:40;;;;;;;15.32;6.90;;;;;;;8.01;58.07;98818.88;1736058;82;20976;-72
2021/10/09 08:48:07;;;;;;;15.63;7.00;;;;;;;8.12;55.16;98821.42;1748750;81;22067;-73
2021/10/09 08:50:34;;;;;;;16.32;6.50;;;;;;;8.24;57.23;98820.04;1740720;82;21007;-73
2021/10/09 08:53:08;;;;;;;9.98;5.55;;;;;;;8.36;55.88;98811.59;1741311;82;21445;-73
2021/10/09 08:55:38;;;;;;;13.88;5.87;;;;;;;8.48;55.60;98811.94;1741521;82;21417;-74
2021/10/09 08:58:09;;;;;;;11.70;5.20;;;;;;;8.61;56.46;98816.27;1741913;82;21012;-73
2021/10/09 09:01:00;;;;;;;14.47;5.62;;;;;;;8.75;56.44;98818.78;1742481;81;20983;-74
2021/10/09 09:03:27;;;;;;;10.05;5.12;;;;;;;8.86;54.89;98806.80;1739949;82;21004;-74
2021/10/09 09:06:02;;;;;;;17.12;5.05;;;;;;;9.03;53.87;98810.61;1741015;82;21008;-73
2021/10/09 09:30:44;;;;;;;12.93;3.98;;;;;;;10.74;50.27;98803.91;1786566;79;21024;-73
2021/10/09 09:41:20;;;;;;;16.27;4.97;;;;;;;11.25;49.06;98801.67;1822472;79;20980;-73
2021/10/09 09:43:51;;;;;;;10.60;4.70;;;;;;;11.37;49.12;98803.68;1823889;79;20956;-74
2021/10/09 09:46:26;;;;;;;12.73;4.80;;;;;;;11.52;47.70;98806.02;1819719;79;20984;-74
2021/10/09 09:48:53;;;;;;;18.55;5.78;;;;;;;11.64;45.82;98806.66;1781165;80;20944;-74
2021/10/09 09:51:23;;;;;;;10.65;4.47;;;;;;;11.75;45.63;98800.22;1774884;80;20989;-74
2021/10/09 09:53:50;;;;;;;12.33;5.05;;;;;;;11.92;46.84;98800.30;1792098;80;21397;-74
2021/10/09 09:56:18;;;;;;;14.07;5.65;;;;;;;12.06;46.64;98801.81;1764361;81;21461;-73
2021/10/09 09:58:54;;;;;;;33.50;12.90;;;;;;;12.18;45.96;98800.66;1792017;80;21369;-73
2021/10/09 10:01:23;;;;;;;14.00;5.15;;;;;;;12.24;46.36;98793.86;1786023;80;21421;-74
2021/10/09 10:03:50;;;;;;;16.27;4.53;;;;;;;12.23;45.03;98797.44;1784253;80;20984;-74
2021/10/09 10:06:16;;;;;;;12.65;4.70;;;;;;;12.27;45.40;98800.45;1794792;80;20967;-73
2021/10/09 10:08:44;;;;;;;12.75;5.35;;;;;;;12.28;44.95;98795.10;1791935;80;20935;-74
2021/10/09 10:11:17;;;;;;;12.40;4.80;;;;;;;12.32;44.32;98797.22;1781811;80;21446;-74
2021/10/09 10:13:44;;;;;;;11.22;4.70;;;;;;;12.28;44.28;98798.20;1769063;80;21358;-74
2021/10/09 10:16:12;;;;;;;13.85;4.55;;;;;;;12.28;45.12;98794.22;1792123;80;20987;-74
2021/10/09 10:18:51;;;;;;;16.15;4.45;;;;;;;12.30;44.86;98799.50;1764507;81;21043;-74
2021/10/09 10:21:41;;;;;;;7.92;4.28;;;;;;;12.34;44.81;98797.19;1791226;80;20990;-74
2021/10/09 10:24:12;;;;;;;12.18;4.08;;;;;;;12.39;45.01;98785.55;1790330;80;21025;-74
2021/10/09 10:26:39;;;;;;;8.38;4.00;;;;;;;12.47;44.28;98796.00;1752723;81;21004;-74
2021/10/09 10:29:17;;;;;;;6.78;3.75;;;;;;;12.51;44.22;98794.98;1767391;81;20982;-73
2021/10/09 10:32:13;;;;;;;12.85;3.67;;;;;;;12.52;43.95;98794.09;1784316;80;21441;-74
2021/10/09 10:34:41;;;;;;;6.75;3.95;;;;;;;12.52;44.01;98796.75;1737158;83;21002;-74
2021/10/09 10:37:07;;;;;;;7.28;3.83;;;;;;;12.53;43.73;98793.62;1784905;80;20976;-74
2021/10/09 10:39:40;;;;;;;7.37;4.17;;;;;;;12.48;42.71;98791.53;1737203;83;20993;-74
2021/10/09 10:42:29;;;;;;;9.88;4.20;;;;;;;12.47;43.35;98793.34;1784677;80;21063;-74
2021/10/09 10:51:00;;;;;;;8.50;4.30;;;;;;;13.17;42.40;98789.34;1753915;82;20952;-74
2021/10/09 10:53:33;;;;;;;7.90;4.05;;;;;;;13.75;42.45;98783.30;1753607;82;21044;-74
2021/10/09 10:56:13;;;;;;;;;;;;;;;13.99;41.65;98783.00;1777668;80;20960;-74
2021/10/09 10:58:39;;;;;;;9.70;4.20;;;;;;;14.57;42.11;98787.84;1785102;80;20108;-74
2021/10/09 11:01:19;;;;;;;10.28;4.70;;;;;;;14.77;37.59;98777.88;1737020;83;21019;-74
2021/10/09 11:03:53;;;;;;;10.10;4.80;;;;;;;14.96;38.33;98777.23;1784796;80;20953;-74
2021/10/09 11:06:23;;;;;;;11.85;4.58;;;;;;;15.02;39.67;98771.67;1737102;83;21002;-74
2021/10/09 11:08:52;;;;;;;13.58;4.97;;;;;;;14.80;39.00;98773.34;1736323;83;21003;-74
2021/10/09 11:11:34;;;;;;;9.23;4.67;;;;;;;14.81;40.23;98771.08;1735329;83;21015;-74
2021/10/09 11:14:01;;;;;;;12.47;5.10;;;;;;;14.87;40.07;98767.73;1783091;80;21009;-73
2021/10/09 11:16:31;;;;;;;10.03;4.85;;;;;;;14.96;40.62;98759.01;1767203;81;21019;-74
2021/10/09 11:18:58;;;;;;;9.30;5.37;;;;;;;14.86;38.81;98767.81;1783096;80;21071;-74
2021/10/09 11:21:24;;;;;;;16.87;6.90;;;;;;;14.63;36.64;98764.09;1736797;83;20947;-74
2021/10/09 11:23:57;;;;;;;11.75;5.05;;;;;;;14.74;38.90;98756.59;1784553;80;20977;-74
2021/10/09 11:26:27;;;;;;;22.20;5.33;;;;;;;14.84;39.24;98758.97;1741425;81;20995;-74
2021/10/09 11:29:04;;;;;;;29.82;6.03;;;;;;;14.83;39.28;98762.58;1743965;82;21139;-74
2021/10/09 11:31:31;;;;;;;23.92;5.15;;;;;;;14.69;38.90;98747.88;1685582;85;20999;-74
2021/10/09 11:34:00;;;;;;;9.13;4.87;;;;;;;14.60;40.12;98751.73;1738569;82;21035;-74
2021/10/09 11:36:29;;;;;;;10.10;5.40;;;;;;;14.57;40.30;98752.31;1715734;84;21045;-74
2021/10/09 11:39:11;;;;;;;15.72;4.97;;;;;;;14.67;40.50;98746.18;1715628;84;21025;-74
2021/10/09 11:41:33;;;;;;;12.47;5.17;;;;;;;14.93;40.43;98739.09;1728146;81;21382;-74
2021/10/09 11:44:07;;;;;;;11.95;5.28;;;;;;;15.50;40.10;98744.16;1800387;79;21016;-74
2021/10/09 11:47:21;;;;;;;14.10;5.55;;;;;;;15.51;38.49;98733.88;1800345;79;20991;-74
2021/10/09 11:55:19;;;;;;;10.75;5.47;;;;;;;15.65;37.71;98742.23;1770004;79;21015;-74
2021/10/09 11:57:47;;;;;;;;;;;;;;;15.29;37.52;98740.03;1746401;82;21420;-74
2021/10/09 12:00:36;;;;;;;11.22;5.35;;;;;;;15.14;38.39;98739.67;1767218;81;20345;-73
2021/10/09 12:03:33;;;;;;;10.10;5.25;;;;;;;15.01;38.97;98739.69;1767300;81;21460;-74
2021/10/09 12:06:10;;;;;;;17.02;5.78;;;;;;;14.80;38.79;98739.53;1760710;81;21007;-73
2021/10/09 12:08:54;;;;;;;14.43;5.40;;;;;;;14.78;39.54;98734.70;1801388;79;21443;-73
2021/10/09 12:11:29;;;;;;;11.25;5.37;;;;;;;14.75;39.37;98742.34;1776706;80;20943;-73
2021/10/09 12:14:09;;;;;;;14.90;5.17;;;;;;;14.68;39.91;98733.24;1801438;80;21436;-74
2021/10/09 12:16:48;;;;;;;15.13;5.67;;;;;;;14.52;39.78;98728.44;1768730;81;21556;-73
2021/10/09 12:19:27;;;;;;;8.73;4.97;;;;;;;14.50;40.28;98727.63;1736651;81;20983;-74
2021/10/09 12:22:04;;;;;;;14.68;5.65;;;;;;;14.52;40.49;98725.32;1733551;82;20998;-74
2021/10/09 12:24:48;;;;;;;13.13;5.85;;;;;;;14.60;40.04;98718.39;1738433;81;21058;-73
2021/10/09 12:27:20;;;;;;;13.70;5.60;;;;;;;14.55;40.36;98717.67;1742331;80;21083;-74
2021/10/09 12:30:09;;;;;;;12.63;5.22;;;;;;;14.63;40.36;98713.41;1744393;81;21004;-73
2021/10/09 12:32:46;;;;;;;9.78;5.15;;;;;;;14.61;40.11;98716.12;1781561;80;21048;-74
2021/10/09 12:35:18;;;;;;;13.50;5.08;;;;;;;14.52;40.31;98715.98;1775958;81;21404;-73
2021/10/09 12:38:04;;;;;;;11.18;6.22;;;;;;;14.46;40.62;98709.98;1776198;79;20954;-72
2021/10/09 12:40:51;;;;;;;12.00;5.30;;;;;;;14.27;39.59;98714.59;1773905;81;21010;-73
2021/10/09 12:43:23;;;;;;;12.07;5.45;;;;;;;14.04;40.25;98708.70;1775462;81;20960;-73
2021/10/09 12:45:51;;;;;;;9.83;6.10;;;;;;;13.99;40.93;98707.05;1775850;81;20987;-72
2021/10/09 12:48:19;;;;;;;11.22;6.17;;;;;;;13.92;41.27;98711.29;1775910;79;21000;-72
2021/10/09 12:50:46;;;;;;;13.40;5.97;;;;;;;13.84;40.95;98707.06;1776820;80;20934;-72
2021/10/09 12:53:12;;;;;;;9.50;5.45;;;;;;;13.70;41.56;98709.31;1774272;81;20987;-72
2021/10/09 12:55:40;;;;;;;12.85;6.65;;;;;;;13.62;41.89;98709.52;1784625;80;21373;-72
2021/10/09 12:58:09;;;;;;;13.93;7.03;;;;;;;13.55;41.96;98708.86;1789134;80;21007;-73
2021/10/09 13:00:38;;;;;;;14.38;6.78;;;;;;;13.47;42.61;98709.54;1801426;79;20980;-73
2021/10/09 13:03:05;;;;;;;13.50;6.50;;;;;;;13.37;42.56;98711.55;1807553;79;21007;-73
2021/10/09 13:05:32;;;;;;;13.20;6.60;;;;;;;13.38;42.75;98709.78;1778236;79;20988;-73
2021/10/09 13:08:00;;;;;;;14.75;7.33;;;;;;;13.40;42.45;98696.83;1783212;79;20915;-73
2021/10/09 13:10:31;;;;;;;9.10;6.00;;;;;;;13.38;42.19;98701.79;1775946;81;20966;-73
2021/10/09 13:12:56;;;;;;;14.73;6.28;;;;;;;13.36;42.44;98700.98;1799640;79;20983;-73
2021/10/09 13:15:23;;;;;;;11.75;6.35;;;;;;;13.35;43.00;98701.42;1778113;80;20975;-73
2021/10/09 13:17:50;;;;;;;11.83;5.87;;;;;;;13.32;43.24;98699.72;1774281;81;20987;-73
2021/10/09 13:20:19;;;;;;;10.03;5.90;;;;;;;13.27;43.05;98701.66;1782248;80;21011;-73
2021/10/09 13:22:46;;;;;;;8.63;6.00;;;;;;;13.20;43.10;98696.08;1789304;79;21034;-73
2021/10/09 13:25:13;;;;;;;12.25;5.20;;;;;;;13.18;43.21;98696.59;1745276;82;21053;-73
2021/10/09 13:27:39;;;;;;;12.37;7.28;;;;;;;13.16;43.26;98687.31;1730444;81;20993;-73
2021/10/09 13:30:07;;;;;;;21.75;9.68;;;;;;;13.08;43.13;98694.64;1755021;82;20956;-73
2021/10/09 13:32:33;;;;;;;11.57;6.20;;;;;;;13.04;43.24;98698.33;1745454;81;21462;-72
2021/10/09 13:35:00;;;;;;;11.73;5.55;;;;;;;13.00;43.23;98702.84;1731566;81;21020;-73
2021/10/09 13:37:26;;;;;;;9.20;5.22;;;;;;;12.94;43.75;98693.27;1766489;81;21002;-72
2021/10/09 13:39:53;;;;;;;12.13;5.92;;;;;;;12.95;43.87;98692.78;1765709;81;21054;-73
2021/10/09 13:42:20;;;;;;;13.05;5.20;;;;;;;12.94;43.97;98691.05;1765104;81;20954;-73
2021/10/09 13:44:47;;;;;;;14.40;5.20;;;;;;;12.91;43.86;98692.45;1766548;81;21014;-73
2021/10/09 13:47:13;;;;;;;9.48;5.15;;;;;;;12.88;43.96;98684.10;1766617;81;20979;-71
2021/10/09 13:49:40;;;;;;;8.75;5.22;;;;;;;12.87;43.79;98692.15;1766604;81;21392;-73
2021/10/09 13:52:07;;;;;;;9.45;5.22;;;;;;;12.89;43.85;98688.98;1766748;81;20983;-73
2021/10/09 13:54:33;;;;;;;12.10;5.45;;;;;;;12.87;44.24;98682.36;1766297;81;20970;-74
2021/10/09 13:57:00;;;;;;;10.50;5.60;;;;;;;12.87;44.08;98689.49;1766356;81;20991;-74
2021/10/09 13:59:27;;;;;;;12.20;5.22;;;;;;;12.90;44.16;98692.05;1765836;81;20963;-78
2021/10/09 14:01:53;;;;;;;16.20;6.03;;;;;;;12.96;44.04;98684.36;1765052;81;21014;-78
2021/10/09 14:04:20;;;;;;;9.43;5.37;;;;;;;12.97;44.13;98693.64;1765586;81;21314;-78
2021/10/09 14:06:46;;;;;;;11.10;5.87;;;;;;;13.01;44.07;98689.09;1764158;81;21356;-79